Time;durP1;ratioP1;P1;durP2;ratioP2;P2;SDS_P1;SDS_P2;PMS_P1;PMS_P2;Temp;Humidity;BMP_temperature;BMP_pressure;BME280_temperature;BME280_humidity;BME280_pressure;Samples;Min_cycle;Max_cycle;Signal;HPM_P1;HPM_P2
2023/09/27 00:01:33;;;;;;;11.37;10.97;;;16.30;1.00;;;;;;5064126;28;20487;-78
2023/09/27 00:04:02;;;;;;;11.23;10.83;;;16.30;1.00;;;;;;5062624;28;20490;-78
2023/09/27 00:06:30;;;;;;;11.00;10.57;;;16.30;1.00;;;;;;5060381;28;21321;-78
2023/09/27 00:09:00;;;;;;;11.67;11.17;;;16.30;1.00;;;;;;5061041;28;20455;-78
2023/09/27 00:11:28;;;;;;;11.60;11.10;;;16.20;1.00;;;;;;5061326;28;20458;-79
2023/09/27 00:13:57;;;;;;;12.40;11.90;;;16.30;1.00;;;;;;5064585;28;20560;-77
2023/09/27 00:16:25;;;;;;;13.40;12.70;;;16.30;1.00;;;;;;5062570;28;20530;-78
2023/09/27 00:18:53;;;;;;;11.90;11.43;;;16.30;1.00;;;;;;5061989;28;20557;-78
2023/09/27 00:21:21;;;;;;;12.20;11.70;;;16.30;1.00;;;;;;5066921;28;20451;-77
2023/09/27 00:23:50;;;;;;;12.50;12.00;;;16.30;1.00;;;;;;5063552;28;20577;-78
2023/09/27 00:26:19;;;;;;;12.37;11.83;;;16.30;1.00;;;;;;5063359;28;20948;-77
2023/09/27 00:28:48;;;;;;;12.40;11.90;;;16.30;1.00;;;;;;5058746;28;20454;-76
2023/09/27 00:31:16;;;;;;;11.50;11.20;;;16.30;1.00;;;;;;5063471;28;21133;-77
2023/09/27 00:33:45;;;;;;;12.27;11.63;;;16.20;1.00;;;;;;5062500;28;20536;-78
2023/09/27 00:36:13;;;;;;;12.17;11.47;;;16.10;1.00;;;;;;5063730;28;20898;-78
2023/09/27 00:38:41;;;;;;;12.07;11.67;;;16.00;1.00;;;;;;5047036;28;20461;-77
2023/09/27 00:41:10;;;;;;;11.80;11.30;;;16.00;1.00;;;;;;5061001;28;20463;-78
2023/09/27 00:43:40;;;;;;;11.93;11.33;;;16.10;1.00;;;;;;5061617;28;20567;-78
2023/09/27 00:46:08;;;;;;;11.80;11.30;;;16.00;1.00;;;;;;5059509;28;20455;-77
2023/09/27 00:48:37;;;;;;;11.87;11.47;;;16.00;1.00;;;;;;5063052;28;20447;-78
2023/09/27 00:51:06;;;;;;;12.50;11.80;;;16.00;1.00;;;;;;5063668;28;20458;-78
2023/09/27 00:53:35;;;;;;;12.13;11.47;;;16.00;1.00;;;;;;5044099;28;20475;-79
2023/09/27 00:56:04;;;;;;;12.23;11.53;;;16.10;1.00;;;;;;5061030;28;20554;-75
2023/09/27 00:58:34;;;;;;;11.90;11.40;;;16.10;1.00;;;;;;5060317;28;20454;-78
2023/09/27 01:01:04;;;;;;;12.00;11.40;;;16.00;1.00;;;;;;5063906;28;20447;-78
2023/09/27 01:03:32;;;;;;;12.00;11.50;;;15.90;1.00;;;;;;5059879;28;20518;-79
2023/09/27 01:06:01;;;;;;;11.80;11.30;;;15.90;1.00;;;;;;5062546;28;20477;-79
2023/09/27 01:08:30;;;;;;;11.60;11.20;;;15.90;1.00;;;;;;5059773;28;20503;-78
2023/09/27 01:10:58;;;;;;;11.97;11.50;;;15.80;1.00;;;;;;5063411;28;20487;-79
2023/09/27 01:13:27;;;;;;;12.50;11.87;;;15.70;1.00;;;;;;5061202;28;20467;-79
2023/09/27 01:15:55;;;;;;;12.27;11.87;;;15.70;1.00;;;;;;5062251;28;21134;-80
2023/09/27 01:18:26;;;;;;;12.80;12.30;;;15.70;1.00;;;;;;5058029;28;20557;-79
2023/09/27 01:20:54;;;;;;;11.43;11.03;;;15.70;1.00;;;;;;5062687;28;20466;-79
2023/09/27 01:23:24;;;;;;;11.77;11.17;;;15.70;1.00;;;;;;5063678;28;21147;-79
2023/09/27 01:25:58;;;;;;;11.77;11.27;;;15.70;1.00;;;;;;5064042;28;21033;-79
2023/09/27 01:28:27;;;;;;;11.93;11.50;;;15.70;1.00;;;;;;5062148;28;20556;-79
2023/09/27 01:30:55;;;;;;;11.43;11.03;;;15.70;1.00;;;;;;5061410;28;20967;-79
2023/09/27 01:33:23;;;;;;;12.00;11.40;;;15.80;1.00;;;;;;5060635;28;20470;-79
2023/09/27 01:35:51;;;;;;;11.93;11.43;;;15.80;1.00;;;;;;5058702;28;20559;-80
2023/09/27 01:38:19;;;;;;;11.60;11.20;;;15.70;1.00;;;;;;5061950;28;20539;-79
2023/09/27 01:40:49;;;;;;;11.50;10.90;;;15.60;1.00;;;;;;5064421;28;20454;-78
2023/09/27 01:43:17;;;;;;;10.83;10.40;;;15.60;1.00;;;;;;5058304;28;20501;-79
2023/09/27 01:45:45;;;;;;;12.10;11.47;;;15.60;1.00;;;;;;5058894;28;21417;-79
2023/09/27 01:48:13;;;;;;;11.57;11.10;;;15.60;1.00;;;;;;5063273;28;20621;-79
2023/09/27 01:50:42;;;;;;;11.50;11.00;;;15.60;1.00;;;;;;5062086;28;20465;-78
2023/09/27 01:53:10;;;;;;;12.43;11.80;;;15.60;1.00;;;;;;5062162;28;20999;-79
2023/09/27 01:55:38;;;;;;;11.70;11.30;;;15.50;1.00;;;;;;5061356;28;20458;-78
2023/09/27 01:58:07;;;;;;;11.43;11.03;;;15.60;1.00;;;;;;5057518;28;21103;-78
2023/09/27 02:00:36;;;;;;;11.70;11.30;;;15.50;1.00;;;;;;5061417;28;20459;-79
2023/09/27 02:03:05;;;;;;;12.23;11.73;;;15.60;1.00;;;;;;5062894;28;20829;-79
2023/09/27 02:05:33;;;;;;;11.30;10.90;;;15.50;1.00;;;;;;5063607;28;20469;-79
2023/09/27 02:08:02;;;;;;;11.23;10.83;;;15.50;1.00;;;;;;5065816;28;20478;-79
2023/09/27 02:10:30;;;;;;;11.90;11.40;;;15.50;1.00;;;;;;5067218;28;21187;-79
2023/09/27 02:12:58;;;;;;;11.83;11.40;;;15.50;1.00;;;;;;5067405;28;20543;-78
2023/09/27 02:15:28;;;;;;;11.73;11.23;;;15.50;1.00;;;;;;5067012;28;20443;-79
2023/09/27 02:17:56;;;;;;;12.30;11.80;;;15.40;1.00;;;;;;5062121;28;20454;-79
2023/09/27 02:20:25;;;;;;;12.63;12.03;;;15.40;1.00;;;;;;5064240;28;20513;-79
2023/09/27 02:22:55;;;;;;;50.80;32.57;;;15.40;1.00;;;;;;5065663;28;20813;-78
2023/09/27 02:25:23;;;;;;;29.40;23.27;;;15.40;1.00;;;;;;5065648;28;20517;-78
2023/09/27 02:27:52;;;;;;;21.43;19.03;;;15.50;1.00;;;;;;5062038;28;20490;-79
2023/09/27 02:30:22;;;;;;;14.03;12.93;;;15.30;1.00;;;;;;5065099;28;20447;-79
2023/09/27 02:32:52;;;;;;;11.77;11.27;;;15.30;1.00;;;;;;5066578;28;20484;-79
2023/09/27 02:35:21;;;;;;;11.80;11.30;;;15.30;1.00;;;;;;5067468;28;20464;-79
2023/09/27 02:37:49;;;;;;;11.30;10.90;;;15.30;1.00;;;;;;5064780;28;20446;-77
2023/09/27 02:40:18;;;;;;;12.27;11.67;;;15.30;1.00;;;;;;5067483;28;20541;-78
2023/09/27 02:42:48;;;;;;;11.90;11.50;;;15.20;1.00;;;;;;5065767;28;21178;-78
2023/09/27 02:45:16;;;;;;;10.80;10.50;;;15.20;1.00;;;;;;5062247;28;20459;-78
2023/09/27 02:47:46;;;;;;;11.50;11.10;;;15.20;1.00;;;;;;5060777;28;20902;-79
2023/09/27 02:50:16;;;;;;;11.93;11.43;;;15.20;1.00;;;;;;5062570;28;21230;-78
2023/09/27 02:52:45;;;;;;;12.10;11.60;;;15.20;1.00;;;;;;5060998;28;20479;-79
2023/09/27 02:55:13;;;;;;;11.63;10.97;;;15.20;1.00;;;;;;5066748;28;20462;-78
2023/09/27 02:57:48;;;;;;;11.83;11.40;;;15.20;1.00;;;;;;5064867;28;20447;-79
2023/09/27 03:00:18;;;;;;;11.83;11.33;;;15.10;1.00;;;;;;5062307;28;21452;-80
2023/09/27 03:02:46;;;;;;;11.20;10.80;;;15.10;1.00;;;;;;5063543;28;20511;-77
2023/09/27 03:05:17;;;;;;;11.80;11.40;;;15.10;1.00;;;;;;5065245;28;20450;-78
2023/09/27 03:07:49;;;;;;;10.40;10.10;;;15.00;1.00;;;;;;5063196;28;20587;-77
2023/09/27 03:10:18;;;;;;;11.43;10.90;;;15.00;1.00;;;;;;5061340;28;21153;-78
2023/09/27 03:12:49;;;;;;;11.73;11.30;;;15.00;1.00;;;;;;5064763;28;21038;-78
2023/09/27 03:15:17;;;;;;;12.13;11.60;;;15.00;1.00;;;;;;5064406;28;20542;-77
2023/09/27 03:17:45;;;;;;;12.37;11.77;;;15.00;1.00;;;;;;5062303;28;20455;-77
2023/09/27 03:20:21;;;;;;;11.73;11.23;;;14.90;1.00;;;;;;5066031;28;20477;-79
2023/09/27 03:22:52;;;;;;;12.20;11.70;;;14.90;1.00;;;;;;5047828;28;20502;-80
2023/09/27 03:25:20;;;;;;;12.00;11.60;;;14.90;1.00;;;;;;5063404;28;20451;-80
2023/09/27 03:27:48;;;;;;;12.30;11.80;;;15.00;1.00;;;;;;5064342;28;20462;-77
2023/09/27 03:30:18;;;;;;;12.23;11.73;;;15.00;1.00;;;;;;5045462;28;20462;-79
2023/09/27 03:32:46;;;;;;;12.87;12.20;;;15.00;1.00;;;;;;5062742;28;20486;-79
2023/09/27 03:35:14;;;;;;;12.57;12.17;;;14.90;1.00;;;;;;5066215;28;20450;-79
2023/09/27 03:37:46;;;;;;;13.10;12.50;;;14.90;1.00;;;;;;5062306;28;20541;-79
2023/09/27 03:40:15;;;;;;;12.50;12.00;;;14.90;1.00;;;;;;5064415;28;20454;-79
2023/09/27 03:42:44;;;;;;;13.17;12.67;;;14.80;1.00;;;;;;5065529;28;20455;-79
2023/09/27 03:45:14;;;;;;;13.50;12.90;;;14.90;1.00;;;;;;5062738;28;20482;-81
2023/09/27 03:47:44;;;;;;;13.57;12.97;;;14.90;1.00;;;;;;5061962;28;20555;-80
2023/09/27 03:50:13;;;;;;;13.10;12.60;;;15.00;99.90;;;;;;5062946;28;20493;-78
2023/09/27 03:52:42;;;;;;;12.47;12.07;;;15.10;91.30;;;;;;5060215;28;20451;-79
2023/09/27 03:55:12;;;;;;;12.20;11.70;;;15.10;1.00;;;;;;5063960;28;20511;-79
2023/09/27 03:57:41;;;;;;;13.20;12.63;;;15.00;1.00;;;;;;5063327;28;20458;-79
2023/09/27 04:00:13;;;;;;;13.53;12.93;;;14.90;1.00;;;;;;5063205;28;20946;-82
2023/09/27 04:02:42;;;;;;;12.90;12.20;;;14.90;1.00;;;;;;5059676;28;20448;-82
2023/09/27 04:05:11;;;;;;;12.70;12.30;;;14.90;1.00;;;;;;5060783;28;20462;-83
2023/09/27 04:07:40;;;;;;;13.00;12.50;;;14.90;1.00;;;;;;5054528;28;20802;-79
2023/09/27 04:10:09;;;;;;;13.93;13.33;;;14.90;1.00;;;;;;5069450;28;20474;-81
2023/09/27 04:12:38;;;;;;;13.73;13.23;;;14.90;1.00;;;;;;5066949;28;20455;-83
2023/09/27 04:15:09;;;;;;;13.93;13.33;;;14.90;1.00;;;;;;5063100;28;20598;-81
2023/09/27 04:17:38;;;;;;;13.30;12.70;;;14.80;1.00;;;;;;5067749;28;20859;-80
2023/09/27 04:23:03;;;;;;;13.80;13.30;;;14.70;1.00;;;;;;5070151;28;20486;-82
2023/09/27 04:25:32;;;;;;;13.70;13.03;;;14.70;1.00;;;;;;5068953;28;20458;-83
2023/09/27 04:28:04;;;;;;;13.00;12.60;;;14.80;1.00;;;;;;5068337;28;20489;-83
2023/09/27 04:30:33;;;;;;;13.50;13.00;;;14.80;1.00;;;;;;5067146;28;20481;-83
2023/09/27 04:33:01;;;;;;;13.80;13.10;;;14.70;1.00;;;;;;5053409;28;21031;-82
2023/09/27 04:35:29;;;;;;;13.33;12.93;;;14.70;1.00;;;;;;5050221;28;20455;-83
2023/09/27 04:37:57;;;;;;;13.57;13.07;;;14.60;1.00;;;;;;5067378;28;20539;-83
2023/09/27 04:40:26;;;;;;;13.50;13.00;;;14.50;1.00;;;;;;5068727;28;20457;-83
2023/09/27 04:42:54;;;;;;;13.87;13.27;;;14.40;8.00;;;;;;5067717;28;20475;-83
2023/09/27 04:45:23;;;;;;;14.27;13.57;;;14.40;1.00;;;;;;5068331;28;20451;-83
2023/09/27 04:47:52;;;;;;;13.83;13.33;;;14.40;84.80;;;;;;5061718;28;20458;-78
2023/09/27 04:50:20;;;;;;;13.77;13.27;;;14.40;1.00;;;;;;5064702;28;20528;-79
2023/09/27 04:52:48;;;;;;;14.67;13.80;;;14.50;1.00;;;;;;5066453;28;21340;-80
2023/09/27 04:55:16;;;;;;;14.23;13.63;;;14.50;1.00;;;;;;5067533;28;20455;-79
2023/09/27 04:57:45;;;;;;;14.17;13.57;;;14.50;1.00;;;;;;5066578;28;20535;-81
2023/09/27 05:00:18;;;;;;;14.97;13.97;;;14.60;1.00;;;;;;5058238;28;20452;-80
2023/09/27 05:02:49;;;;;;;14.73;14.10;;;14.60;1.00;;;;;;5066184;28;20562;-80
2023/09/27 05:05:18;;;;;;;14.63;14.03;;;14.60;1.00;;;;;;5068344;28;20454;-81
2023/09/27 05:07:46;;;;;;;13.87;13.37;;;14.50;1.00;;;;;;5070600;28;20479;-83
2023/09/27 05:10:23;;;;;;;13.67;13.17;;;14.60;1.00;;;;;;5064724;28;20512;-81
2023/09/27 05:12:52;;;;;;;15.67;14.87;;;14.50;1.00;;;;;;5066762;28;20477;-81
2023/09/27 05:15:21;;;;;;;14.20;13.60;;;14.60;1.00;;;;;;5065477;28;20565;-82
2023/09/27 05:18:01;;;;;;;14.80;14.20;;;14.60;1.00;;;;;;5062489;28;20462;-80
2023/09/27 05:20:43;;;;;;;14.60;14.00;;;14.70;1.00;;;;;;5065042;28;20957;-81
2023/09/27 05:23:12;;;;;;;14.83;14.23;;;14.60;1.00;;;;;;5056663;28;20582;-81
2023/09/27 05:25:41;;;;;;;15.17;14.47;;;14.60;1.00;;;;;;5060644;28;20443;-82
2023/09/27 05:28:10;;;;;;;15.67;14.87;;;14.70;1.00;;;;;;5062566;28;20453;-81
2023/09/27 05:30:38;;;;;;;16.23;15.20;;;14.70;1.00;;;;;;5067314;28;20475;-78
2023/09/27 05:33:07;;;;;;;14.87;14.27;;;14.70;1.00;;;;;;5065694;28;20509;-83
2023/09/27 05:35:36;;;;;;;14.70;14.10;;;14.70;1.00;;;;;;5069250;28;20840;-81
2023/09/27 05:38:04;;;;;;;14.97;14.47;;;14.70;1.00;;;;;;5068903;28;20456;-82
2023/09/27 05:40:32;;;;;;;15.47;14.87;;;14.70;1.00;;;;;;5069100;28;20463;-81
2023/09/27 05:43:01;;;;;;;15.93;14.83;;;14.60;1.00;;;;;;5068796;28;21397;-82
2023/09/27 05:45:29;;;;;;;15.27;14.67;;;14.70;1.00;;;;;;5065420;28;20447;-81
2023/09/27 05:47:58;;;;;;;16.47;15.60;;;14.70;1.00;;;;;;5071120;28;20542;-79
2023/09/27 05:50:27;;;;;;;16.00;15.10;;;14.70;1.00;;;;;;5066682;28;20483;-81
2023/09/27 05:52:56;;;;;;;16.33;15.60;;;14.60;1.00;;;;;;5063402;28;20475;-81
2023/09/27 05:55:24;;;;;;;15.50;14.80;;;14.60;1.00;;;;;;5050438;28;20459;-81
2023/09/27 05:57:54;;;;;;;16.10;15.40;;;14.60;1.00;;;;;;5065678;28;20464;-80
2023/09/27 06:00:26;;;;;;;15.90;15.00;;;14.60;1.00;;;;;;5067205;28;20483;-82
2023/09/27 06:02:54;;;;;;;16.40;15.60;;;14.70;10.90;;;;;;5063391;28;20493;-79
2023/09/27 06:05:23;;;;;;;16.10;15.40;;;14.70;11.90;;;;;;5064399;28;20539;-82
2023/09/27 06:07:53;;;;;;;16.77;15.83;;;14.70;23.30;;;;;;5067834;28;20474;-80
2023/09/27 06:10:22;;;;;;;16.97;16.00;;;14.80;1.00;;;;;;5069474;28;20479;-80
2023/09/27 06:12:50;;;;;;;16.07;15.27;;;14.70;1.00;;;;;;5067947;28;21198;-82
2023/09/27 06:15:18;;;;;;;16.67;15.87;;;14.70;17.80;;;;;;5067368;28;20439;-80
2023/09/27 06:17:48;;;;;;;17.97;16.87;;;14.80;17.50;;;;;;5069514;28;20534;-82
2023/09/27 06:20:22;;;;;;;17.60;16.50;;;14.80;25.70;;;;;;5059113;28;20447;-82
2023/09/27 06:22:53;;;;;;;17.27;16.33;;;15.00;1.00;;;;;;5063013;28;20486;-80
2023/09/27 06:25:23;;;;;;;16.90;16.20;;;15.10;1.00;;;;;;5070555;28;20534;-81
2023/09/27 06:27:52;;;;;;;17.37;16.57;;;15.20;1.00;;;;;;5070199;28;20457;-82
2023/09/27 06:30:23;;;;;;;17.53;16.60;;;15.20;7.30;;;;;;5069044;28;20467;-81
2023/09/27 06:32:51;;;;;;;17.27;16.47;;;15.20;1.00;;;;;;5075244;28;20463;-82
2023/09/27 06:35:20;;;;;;;17.67;16.77;;;15.20;1.00;;;;;;5067363;28;20459;-81
2023/09/27 06:37:49;;;;;;;17.90;17.07;;;15.30;1.00;;;;;;5067451;28;20479;-78
2023/09/27 06:40:22;;;;;;;16.80;16.00;;;15.30;1.00;;;;;;5069405;28;20443;-81
2023/09/27 06:42:50;;;;;;;18.43;17.23;;;15.30;1.00;;;;;;5071001;28;20520;-80
2023/09/27 06:45:18;;;;;;;17.30;16.53;;;15.40;1.00;;;;;;5070594;28;20455;-82
2023/09/27 06:47:47;;;;;;;18.57;17.30;;;15.40;1.00;;;;;;5057607;28;20913;-79
2023/09/27 06:50:16;;;;;;;17.57;16.67;;;15.40;1.00;;;;;;5068114;28;20901;-82
2023/09/27 06:52:45;;;;;;;17.27;16.17;;;15.40;1.00;;;;;;5067226;28;20469;-82
2023/09/27 06:55:16;;;;;;;17.50;16.60;;;15.50;1.00;;;;;;5071872;28;20459;-81
2023/09/27 06:57:49;;;;;;;18.40;17.30;;;15.50;1.00;;;;;;5073536;28;20527;-81
2023/09/27 07:00:18;;;;;;;17.40;16.60;;;15.60;7.30;;;;;;5061773;28;20449;-81
2023/09/27 07:02:47;;;;;;;18.17;17.27;;;15.70;14.60;;;;;;5060874;28;20522;-78
2023/09/27 07:05:17;;;;;;;17.73;16.87;;;15.70;1.00;;;;;;5065351;28;21075;-83
2023/09/27 07:07:46;;;;;;;18.03;16.87;;;15.80;1.00;;;;;;5065085;28;20451;-82
2023/09/27 07:10:15;;;;;;;17.70;16.80;;;15.90;1.00;;;;;;5061783;28;21118;-80
2023/09/27 07:12:43;;;;;;;18.13;17.33;;;15.90;1.00;;;;;;5066393;28;20483;-82
2023/09/27 07:15:13;;;;;;;17.97;17.00;;;16.10;1.00;;;;;;5059819;28;20530;-80
2023/09/27 07:17:43;;;;;;;17.10;16.30;;;16.20;1.00;;;;;;5037119;28;21999;-82
2023/09/27 07:20:20;;;;;;;17.93;17.00;;;16.20;1.00;;;;;;5028591;28;20451;-80
2023/09/27 07:22:49;;;;;;;19.67;18.43;;;16.30;1.00;;;;;;5022843;28;20491;-83
2023/09/27 07:25:20;;;;;;;19.10;17.80;;;16.50;1.00;;;;;;5012091;28;21042;-81
2023/09/27 07:27:49;;;;;;;18.00;17.10;;;16.50;1.00;;;;;;5022315;28;20458;-80
2023/09/27 07:30:23;;;;;;;18.10;17.40;;;16.60;1.00;;;;;;5011349;28;20495;-82
2023/09/27 07:32:53;;;;;;;18.77;17.67;;;16.60;1.00;;;;;;5013421;28;20482;-81
2023/09/27 07:35:23;;;;;;;17.87;17.17;;;16.70;47.00;;;;;;5005100;28;20458;-80
2023/09/27 07:37:52;;;;;;;17.43;16.73;;;16.80;1.00;;;;;;5009626;28;21113;-82
2023/09/27 07:40:20;;;;;;;17.13;16.37;;;16.70;99.90;;;;;;5015146;28;20485;-80
2023/09/27 07:42:48;;;;;;;17.23;16.53;;;16.80;99.90;;;;;;5011152;28;20529;-80
2023/09/27 07:45:21;;;;;;;17.60;16.80;;;17.00;14.50;;;;;;5010203;28;20968;-82
2023/09/27 07:47:51;;;;;;;18.43;17.47;;;17.60;1.00;;;;;;5011854;28;20492;-80
2023/09/27 07:50:20;;;;;;;17.03;16.43;;;18.00;1.00;;;;;;5012877;28;20490;-82
2023/09/27 07:52:49;;;;;;;18.07;17.47;;;18.60;1.00;;;;;;5018026;28;20467;-82
2023/09/27 07:55:17;;;;;;;18.00;17.20;;;19.10;1.00;;;;;;5009564;28;20439;-83
2023/09/27 07:57:46;;;;;;;17.80;17.00;;;19.50;99.90;;;;;;5017635;28;20196;-83
2023/09/27 08:00:18;;;;;;;17.57;16.87;;;20.00;99.90;;;;;;5009200;28;20451;-82
2023/09/27 08:02:50;;;;;;;17.90;16.90;;;20.50;99.90;;;;;;5011097;28;20485;-81
2023/09/27 08:05:19;;;;;;;17.80;17.10;;;20.90;99.90;;;;;;5011226;28;20882;-83
2023/09/27 08:07:48;;;;;;;17.87;17.17;;;21.30;99.90;;;;;;5014725;28;20757;-83
2023/09/27 08:10:19;;;;;;;18.67;17.30;;;21.60;99.90;;;;;;5014437;28;20454;-81
2023/09/27 08:12:50;;;;;;;17.30;16.60;;;22.00;99.90;;;;;;5013606;28;20485;-84
2023/09/27 08:15:21;;;;;;;17.93;17.23;;;22.50;99.90;;;;;;5018546;28;20458;-83
2023/09/27 08:17:52;;;;;;;17.67;17.03;;;22.90;99.90;;;;;;5010786;28;20454;-82
2023/09/27 08:20:20;;;;;;;17.77;17.07;;;23.20;99.90;;;;;;5019689;28;20471;-83
2023/09/27 08:22:49;;;;;;;17.40;16.80;;;23.50;99.90;;;;;;5009705;28;20495;-81
2023/09/27 08:25:18;;;;;;;17.97;17.40;;;23.80;99.90;;;;;;5014453;28;20962;-84
2023/09/27 08:27:50;;;;;;;17.43;16.83;;;24.10;99.90;;;;;;5014492;28;20499;-83
2023/09/27 08:30:20;;;;;;;18.10;17.30;;;24.20;99.90;;;;;;5010601;28;20449;-83
2023/09/27 08:32:48;;;;;;;17.10;16.50;;;24.40;99.90;;;;;;5014595;28;20481;-83
2023/09/27 08:35:18;;;;;;;17.33;16.57;;;24.60;99.90;;;;;;5013318;28;20462;-84
2023/09/27 08:37:47;;;;;;;16.70;15.87;;;24.90;99.90;;;;;;5012658;28;20462;-83
2023/09/27 08:40:16;;;;;;;17.40;16.50;;;25.10;99.90;;;;;;5016035;28;20449;-84
2023/09/27 08:42:47;;;;;;;17.50;16.57;;;25.30;99.90;;;;;;5010602;28;20547;-84
2023/09/27 08:45:43;;;;;;;17.70;17.00;;;25.70;99.90;;;;;;5003805;28;20573;-84
2023/09/27 08:48:29;;;;;;;17.43;16.80;;;25.40;99.90;;;;;;5010619;28;20464;-84
2023/09/27 08:54:22;;;;;;;17.00;16.40;;;25.60;99.90;;;;;;5014033;28;20500;-83
2023/09/27 08:57:10;;;;;;;16.80;16.20;;;26.00;99.90;;;;;;5009563;28;20478;-82
2023/09/27 08:59:46;;;;;;;17.10;16.50;;;26.10;99.90;;;;;;5009188;28;20459;-84
2023/09/27 09:02:23;;;;;;;16.40;15.80;;;26.50;99.90;;;;;;5011878;28;20527;-84
2023/09/27 09:05:37;;;;;;;17.20;16.60;;;26.80;99.90;;;;;;5006234;28;20461;-83
2023/09/27 09:08:50;;;;;;;16.93;16.33;;;27.00;99.90;;;;;;5010963;28;20449;-85
2023/09/27 09:11:56;;;;;;;16.90;16.30;;;27.20;99.90;;;;;;5010513;28;20466;-84
2023/09/27 09:15:05;;;;;;;16.70;16.10;;;27.70;99.90;;;;;;5012891;28;20563;-83
2023/09/27 09:17:34;;;;;;;16.70;16.20;;;28.10;99.90;;;;;;5005147;28;20880;-84
2023/09/27 09:20:21;;;;;;;16.83;16.23;;;28.40;99.90;;;;;;5019687;28;20963;-84
2023/09/27 09:22:53;;;;;;;17.00;16.30;;;29.30;99.90;;;;;;5014036;28;21101;-84
2023/09/27 09:25:23;;;;;;;16.90;16.30;;;29.70;99.90;;;;;;5011986;28;20478;-84
2023/09/27 09:28:03;;;;;;;16.50;15.90;;;30.20;99.90;;;;;;5013848;28;20463;-86
2023/09/27 09:30:36;;;;;;;17.00;16.40;;;30.50;99.90;;;;;;5012918;28;20544;-85
2023/09/27 09:33:10;;;;;;;16.40;15.77;;;30.90;99.90;;;;;;5024432;28;20489;-82
2023/09/27 09:35:43;;;;;;;16.60;15.90;;;30.90;99.90;;;;;;5014665;28;20451;-83
2023/09/27 09:38:13;;;;;;;17.07;16.47;;;31.10;99.90;;;;;;5012562;28;20462;-82
2023/09/27 09:40:56;;;;;;;16.30;15.70;;;31.50;99.90;;;;;;5011507;28;20468;-83
2023/09/27 09:43:35;;;;;;;16.20;15.63;;;31.30;99.90;;;;;;5010856;28;21131;-83
2023/09/27 09:46:06;;;;;;;15.40;14.80;;;31.20;99.90;;;;;;5013411;28;20981;-83
2023/09/27 09:48:35;;;;;;;17.07;16.47;;;31.40;99.90;;;;;;5014971;28;20986;-83
2023/09/27 09:51:06;;;;;;;15.70;15.20;;;30.70;99.90;;;;;;5008020;28;20973;-83
2023/09/27 09:53:39;;;;;;;16.10;15.50;;;29.90;99.90;;;;;;5009690;28;21029;-83
2023/09/27 09:56:13;;;;;;;15.63;15.20;;;29.30;99.90;;;;;;5030185;28;20531;-83
2023/09/27 09:58:53;;;;;;;15.73;15.23;;;28.60;99.90;;;;;;5019566;28;20541;-83
2023/09/27 10:01:28;;;;;;;14.80;14.40;;;28.10;99.90;;;;;;5017158;28;20451;-81
2023/09/27 10:04:03;;;;;;;14.90;14.40;;;27.70;99.90;;;;;;5010148;28;20486;-82
2023/09/27 10:06:34;;;;;;;15.30;14.80;;;27.40;99.90;;;;;;5009689;28;21029;-83
2023/09/27 10:09:17;;;;;;;14.80;14.20;;;27.30;99.90;;;;;;5007544;28;20551;-83
2023/09/27 10:11:51;;;;;;;15.37;14.77;;;27.00;99.90;;;;;;5012176;28;20526;-82
2023/09/27 10:14:20;;;;;;;14.50;14.00;;;26.90;99.90;;;;;;5008401;28;21042;-83
2023/09/27 10:16:50;;;;;;;15.43;14.83;;;26.90;99.90;;;;;;5014659;28;20469;-82
2023/09/27 10:19:29;;;;;;;14.23;13.60;;;26.90;99.90;;;;;;5016922;28;21138;-80
2023/09/27 10:22:07;;;;;;;14.93;14.53;;;26.80;99.90;;;;;;5014106;28;20459;-81
2023/09/27 10:24:45;;;;;;;14.30;13.90;;;27.00;99.90;;;;;;5010999;28;20541;-80
2023/09/27 10:27:18;;;;;;;14.40;13.90;;;27.10;99.90;;;;;;5017062;28;20490;-79
2023/09/27 10:29:57;;;;;;;14.60;13.90;;;27.20;99.90;;;;;;5021949;28;20508;-80
2023/09/27 10:32:27;;;;;;;14.13;13.73;;;27.20;99.90;;;;;;5019958;28;20505;-81
2023/09/27 10:35:21;;;;;;;14.10;13.43;;;27.30;99.90;;;;;;5021296;28;20501;-80
2023/09/27 10:38:06;;;;;;;12.83;12.50;;;27.50;99.90;;;;;;5013867;28;21065;-80
2023/09/27 10:40:45;;;;;;;12.80;12.40;;;27.90;99.90;;;;;;5022606;28;20459;-79
2023/09/27 10:43:43;;;;;;;13.60;13.20;;;27.90;99.90;;;;;;5021366;28;20476;-79
2023/09/27 10:46:12;;;;;;;13.80;13.40;;;28.00;99.90;;;;;;5013489;28;20470;-79
2023/09/27 10:48:43;;;;;;;13.40;13.10;;;28.20;99.90;;;;;;5026075;28;20471;-80
2023/09/27 10:51:11;;;;;;;13.47;13.07;;;28.10;99.90;;;;;;5021540;28;20530;-80
2023/09/27 10:53:39;;;;;;;13.77;13.43;;;28.20;99.90;;;;;;5018168;28;20492;-80
2023/09/27 10:56:08;;;;;;;14.07;13.57;;;28.30;99.90;;;;;;5018087;28;20554;-79
2023/09/27 10:58:45;;;;;;;14.00;13.60;;;28.30;99.90;;;;;;5021111;28;20465;-80
2023/09/27 11:01:20;;;;;;;13.30;12.90;;;28.40;99.90;;;;;;5017931;28;20463;-80
2023/09/27 11:03:48;;;;;;;14.13;13.63;;;28.60;99.90;;;;;;5021825;28;20476;-79
2023/09/27 11:06:17;;;;;;;14.27;13.77;;;28.90;99.90;;;;;;5011962;28;20456;-79
2023/09/27 11:08:47;;;;;;;13.73;13.23;;;29.20;99.90;;;;;;5014988;28;20461;-80
2023/09/27 11:11:16;;;;;;;13.90;13.30;;;29.50;99.90;;;;;;5016710;28;20564;-79
2023/09/27 11:13:48;;;;;;;13.03;12.53;;;30.20;99.90;;;;;;5021688;28;20512;-80
2023/09/27 11:16:18;;;;;;;12.57;12.20;;;30.70;99.90;;;;;;5015023;28;21190;-81
2023/09/27 11:18:49;;;;;;;13.50;13.03;;;30.40;99.90;;;;;;5018983;28;20460;-81
2023/09/27 11:21:20;;;;;;;12.60;12.10;;;29.40;99.90;;;;;;5004961;28;20467;-79
2023/09/27 11:23:53;;;;;;;12.50;12.10;;;28.60;99.90;;;;;;5018983;28;20499;-80
2023/09/27 11:26:22;;;;;;;12.63;12.33;;;28.00;99.90;;;;;;5016676;28;20797;-78
2023/09/27 11:29:00;;;;;;;12.33;12.03;;;27.70;99.90;;;;;;5021687;28;20478;-81
2023/09/27 11:31:32;;;;;;;12.00;11.73;;;27.30;99.90;;;;;;5018792;28;20524;-80
2023/09/27 11:34:16;;;;;;;12.73;12.43;;;27.20;99.90;;;;;;5021018;28;20490;-80
2023/09/27 11:36:46;;;;;;;12.40;11.90;;;27.10;99.90;;;;;;5015216;28;20452;-77
2023/09/27 11:39:19;;;;;;;11.97;11.67;;;26.90;99.90;;;;;;5018001;28;20464;-78
2023/09/27 11:41:48;;;;;;;12.77;12.37;;;26.70;99.90;;;;;;5018003;28;20466;-77
2023/09/27 11:44:24;;;;;;;12.30;11.90;;;26.70;99.90;;;;;;5025154;28;20487;-80
2023/09/27 11:47:06;;;;;;;12.40;11.97;;;26.70;99.90;;;;;;5019921;28;20537;-80
2023/09/27 11:49:35;;;;;;;12.03;11.73;;;26.70;99.90;;;;;;5013138;28;20462;-81
2023/09/27 11:52:10;;;;;;;12.50;12.20;;;26.50;99.90;;;;;;5020418;28;20842;-80
2023/09/27 11:54:45;;;;;;;12.37;11.97;;;26.50;99.90;;;;;;5015356;28;20477;-79
2023/09/27 11:57:14;;;;;;;11.80;11.50;;;26.50;99.90;;;;;;5014479;28;20449;-78
2023/09/27 11:59:44;;;;;;;11.53;11.23;;;26.50;99.90;;;;;;5016410;28;20458;-81
2023/09/27 12:02:14;;;;;;;11.50;11.20;;;26.50;99.90;;;;;;5019683;28;20472;-82
2023/09/27 12:04:55;;;;;;;11.70;11.40;;;26.60;99.90;;;;;;5033798;28;20907;-82
2023/09/27 12:07:24;;;;;;;11.50;11.10;;;26.60;99.90;;;;;;5031134;28;20458;-77
2023/09/27 12:10:16;;;;;;;12.67;12.17;;;26.50;99.90;;;;;;5026683;28;20504;-80
2023/09/27 12:12:55;;;;;;;12.30;11.90;;;26.50;99.90;;;;;;5023331;28;20581;-80
2023/09/27 12:15:47;;;;;;;12.20;11.80;;;26.60;99.90;;;;;;5019152;28;20554;-78
2023/09/27 12:19:00;;;;;;;11.70;11.30;;;26.50;99.90;;;;;;4988192;28;20977;-80
2023/09/27 12:21:51;;;;;;;11.67;11.37;;;26.60;99.90;;;;;;5007748;28;20966;-81
2023/09/27 12:24:55;;;;;;;10.90;10.70;;;26.50;99.90;;;;;;5019542;28;20520;-81
2023/09/27 12:28:03;;;;;;;11.07;10.77;;;26.40;99.90;;;;;;5013697;28;20482;-79
2023/09/27 12:31:11;;;;;;;11.57;11.20;;;26.20;99.90;;;;;;5016005;28;20554;-82
2023/09/27 12:34:24;;;;;;;11.30;11.00;;;26.20;99.90;;;;;;5016671;28;20496;-80
2023/09/27 12:37:13;;;;;;;11.27;10.97;;;26.20;99.90;;;;;;5014006;28;20871;-80
2023/09/27 12:39:53;;;;;;;11.50;11.10;;;26.30;99.90;;;;;;5031798;28;20458;-81
2023/09/27 12:42:26;;;;;;;11.13;10.83;;;26.30;99.90;;;;;;5016585;28;20477;-79
2023/09/27 12:44:54;;;;;;;11.00;10.80;;;26.20;99.90;;;;;;5011884;28;20516;-82
2023/09/27 12:47:24;;;;;;;11.70;11.40;;;26.30;99.90;;;;;;5021698;28;20451;-82
2023/09/27 12:49:52;;;;;;;11.10;10.70;;;26.30;99.90;;;;;;5019909;28;20443;-80
2023/09/27 12:52:21;;;;;;;10.90;10.60;;;26.30;99.90;;;;;;5022824;28;20458;-80
2023/09/27 12:54:49;;;;;;;11.20;10.90;;;26.30;99.90;;;;;;5018403;28;20484;-80
2023/09/27 12:57:17;;;;;;;11.33;11.03;;;26.40;99.90;;;;;;5017738;28;20493;-78
2023/09/27 13:00:09;;;;;;;10.87;10.43;;;26.40;99.90;;;;;;5016512;28;20538;-79
2023/09/27 13:05:41;;;;;;;11.40;11.00;;;26.30;99.90;;;;;;5011121;28;20460;-78
2023/09/27 13:08:46;;;;;;;11.57;11.23;;;26.20;99.90;;;;;;5013381;28;20585;-80